createdAt,value
2022-12-17T00:02:20.373Z,-2.34
2022-12-17T00:13:46.673Z,-2.53
2022-12-17T00:19:11.546Z,-2.58
2022-12-17T00:24:33.487Z,-2.56
2022-12-17T00:29:55.498Z,-2.65
2022-12-17T00:35:21.353Z,-2.68
2022-12-17T00:40:43.832Z,-2.59
2022-12-17T00:46:08.787Z,-2.62
2022-12-17T00:51:31.100Z,-2.46
2022-12-17T00:56:54.002Z,-2.48
2022-12-17T01:02:18.900Z,-2.38
2022-12-17T01:07:42.423Z,-2.45
2022-12-17T01:13:05.290Z,-2.30
2022-12-17T01:18:27.653Z,-2.20
2022-12-17T01:23:49.698Z,-2.49
2022-12-17T01:29:11.998Z,-2.73
2022-12-17T01:34:36.177Z,-2.68
2022-12-17T01:39:58.898Z,-2.72
2022-12-17T01:45:22.628Z,-2.57
2022-12-17T01:50:47.817Z,-2.56
2022-12-17T01:56:10.111Z,-2.50
2022-12-17T02:01:32.305Z,-2.66
2022-12-17T02:06:57.637Z,-2.73
2022-12-17T02:12:38.969Z,-2.58
2022-12-17T02:18:07.270Z,-2.75
2022-12-17T02:24:14.254Z,-2.72
2022-12-17T02:29:39.790Z,-2.73
2022-12-17T02:35:06.890Z,-2.71
2022-12-17T02:40:31.924Z,-2.54
2022-12-17T02:45:54.141Z,-2.54
2022-12-17T02:51:18.067Z,-2.51
2022-12-17T02:56:40.414Z,-2.74
2022-12-17T03:02:02.665Z,-2.72
2022-12-17T03:07:29.428Z,-2.75
2022-12-17T03:12:51.581Z,-2.93
2022-12-17T03:18:13.660Z,-2.77
2022-12-17T03:23:36.101Z,-2.73
2022-12-17T03:28:58.443Z,-2.64
2022-12-17T03:34:20.725Z,-2.74
2022-12-17T03:39:43.073Z,-2.82
2022-12-17T03:45:05.186Z,-2.86
2022-12-17T03:50:27.873Z,-2.86
2022-12-17T03:55:50.077Z,-2.91
2022-12-17T04:01:12.491Z,-2.65
2022-12-17T04:06:39.324Z,-2.59
2022-12-17T04:12:04.593Z,-2.72
2022-12-17T04:17:26.956Z,-2.74
2022-12-17T04:22:53.513Z,-2.77
2022-12-17T04:28:16.244Z,-2.68
2022-12-17T04:33:38.972Z,-2.69
2022-12-17T04:39:01.730Z,-2.70
2022-12-17T04:44:23.803Z,-2.80
2022-12-17T04:49:45.838Z,-3.03
2022-12-17T04:55:07.990Z,-3.07
2022-12-17T05:00:30.490Z,-2.91
2022-12-17T05:05:52.474Z,-3.00
2022-12-17T05:11:14.501Z,-3.02
2022-12-17T05:16:39.401Z,-3.09
2022-12-17T05:22:02.250Z,-3.06
2022-12-17T05:27:44.238Z,-2.93
2022-12-17T05:33:06.253Z,-2.93
2022-12-17T05:38:29.694Z,-3.07
2022-12-17T05:43:51.836Z,-3.00
2022-12-17T05:49:13.870Z,-2.93
2022-12-17T05:54:36.056Z,-2.84
2022-12-17T05:59:58.278Z,-2.94
2022-12-17T06:05:23.541Z,-3.03
2022-12-17T06:10:48.103Z,-3.04
2022-12-17T06:16:10.271Z,-3.01
2022-12-17T06:21:32.466Z,-3.11
2022-12-17T06:26:54.864Z,-2.86
2022-12-17T06:32:17.339Z,-2.97
2022-12-17T06:37:40.292Z,-3.07
2022-12-17T06:43:11.870Z,-3.06
2022-12-17T06:48:34.146Z,-3.10
2022-12-17T06:53:56.301Z,-3.04
2022-12-17T06:59:18.875Z,-3.07
2022-12-17T07:04:41.800Z,-2.99
2022-12-17T07:10:08.014Z,-2.90
2022-12-17T07:15:38.916Z,-2.93
2022-12-17T07:21:02.483Z,-2.64
2022-12-17T07:26:30.940Z,-2.49
2022-12-17T07:31:57.056Z,-2.39
2022-12-17T07:37:23.738Z,-2.39
2022-12-17T07:42:52.167Z,-2.25
2022-12-17T07:48:25.076Z,-2.14
2022-12-17T07:54:02.851Z,-2.21
2022-12-17T08:00:03.952Z,-2.22
2022-12-17T08:12:03.474Z,-2.21
2022-12-17T08:17:32.522Z,-2.28
2022-12-17T08:23:24.601Z,-2.22
2022-12-17T08:28:51.181Z,-2.08
2022-12-17T08:34:22.979Z,-1.88
2022-12-17T08:39:47.988Z,-1.78
2022-12-17T08:45:11.771Z,-1.68
2022-12-17T08:56:16.679Z,-1.72
2022-12-17T09:01:41.745Z,-1.77
2022-12-17T09:07:11.761Z,-1.94
2022-12-17T09:13:05.377Z,-1.93
2022-12-17T09:18:45.623Z,-1.69
2022-12-17T09:24:20.966Z,-1.66
2022-12-17T09:29:49.148Z,-1.63
2022-12-17T09:35:28.927Z,-1.88
2022-12-17T09:41:08.995Z,-1.81
2022-12-17T09:47:17.350Z,-1.78
2022-12-17T09:52:52.703Z,-1.79
2022-12-17T09:58:20.251Z,-1.63
2022-12-17T10:09:40.129Z,-1.77
2022-12-17T10:15:14.787Z,-1.73
2022-12-17T10:21:24.065Z,-1.76
2022-12-17T10:27:09.876Z,-1.67
2022-12-17T10:32:35.535Z,-1.63
2022-12-17T10:38:00.856Z,-1.72
2022-12-17T10:43:47.346Z,-1.84
2022-12-17T10:49:36.057Z,-1.73
2022-12-17T10:55:09.307Z,-1.54
2022-12-17T11:01:02.210Z,-1.46
2022-12-17T11:06:56.716Z,-1.64
2022-12-17T11:12:24.561Z,-1.64
2022-12-17T11:17:57.834Z,-1.57
2022-12-17T11:23:26.970Z,-1.49
2022-12-17T11:29:08.040Z,-1.34
2022-12-17T11:34:58.844Z,-1.45
2022-12-17T11:41:07.709Z,-1.54
2022-12-17T11:46:52.388Z,-1.79
2022-12-17T11:52:29.506Z,-1.73
2022-12-17T11:57:54.875Z,-1.66
2022-12-17T12:04:10.777Z,-1.71
2022-12-17T12:10:03.027Z,-1.69
2022-12-17T12:16:18.760Z,-1.53
2022-12-17T12:22:41.042Z,-1.46
2022-12-17T12:28:14.994Z,-1.66
2022-12-17T12:33:57.210Z,-1.55
2022-12-17T12:39:22.733Z,-1.61
2022-12-17T12:45:20.175Z,-1.66
2022-12-17T12:50:49.545Z,-1.81
2022-12-17T12:56:17.538Z,-1.89
2022-12-17T13:02:04.141Z,-1.86
2022-12-17T13:07:22.993Z,-1.96
2022-12-17T13:12:44.636Z,-2.16
2022-12-17T13:17:59.280Z,-2.19
2022-12-17T13:23:16.198Z,-2.28
2022-12-17T13:28:33.340Z,-2.19
2022-12-17T13:33:54.560Z,-2.14
2022-12-17T13:39:12.526Z,-2.19
2022-12-17T13:44:50.322Z,-2.07
2022-12-17T13:50:31.682Z,-2.14
2022-12-17T13:55:24.600Z,-2.36
2022-12-17T14:00:30.723Z,-2.41
2022-12-17T14:05:42.604Z,-2.56
2022-12-17T14:11:13.966Z,-2.52
2022-12-17T14:16:18.765Z,-2.41
2022-12-17T14:21:26.122Z,-2.45
2022-12-17T14:26:29.824Z,-2.58
2022-12-17T14:31:34.206Z,-2.79
2022-12-17T14:36:42.274Z,-2.75
2022-12-17T14:42:06.906Z,-3.01
2022-12-17T14:47:32.552Z,-2.95
2022-12-17T14:52:47.854Z,-2.88
2022-12-17T14:58:07.937Z,-3.07
2022-12-17T15:03:39.969Z,-2.95
2022-12-17T15:08:54.775Z,-2.91
2022-12-17T15:14:13.130Z,-2.85
2022-12-17T15:19:17.245Z,-2.99
2022-12-17T15:24:22.795Z,-2.93
2022-12-17T15:29:27.746Z,-2.83
2022-12-17T15:34:32.434Z,-2.69
2022-12-17T15:39:35.799Z,-2.64
2022-12-17T15:44:39.470Z,-2.65
2022-12-17T15:49:45.021Z,-2.57
2022-12-17T15:54:52.976Z,-2.70
2022-12-17T15:59:56.580Z,-2.60
2022-12-17T16:05:00.419Z,-2.62
2022-12-17T16:10:05.847Z,-2.67
2022-12-17T16:15:14.815Z,-2.64
2022-12-17T16:20:18.169Z,-2.67
2022-12-17T16:25:21.504Z,-2.77
2022-12-17T16:30:24.805Z,-2.64
2022-12-17T16:35:31.120Z,-2.61
2022-12-17T16:40:40.917Z,-2.79
2022-12-17T16:45:56.200Z,-2.83
2022-12-17T16:51:02.602Z,-2.86
2022-12-17T16:56:07.954Z,-2.86
2022-12-17T17:01:12.209Z,-2.83
2022-12-17T17:06:17.294Z,-2.82
2022-12-17T17:11:23.138Z,-2.78
2022-12-17T17:16:27.918Z,-2.73
2022-12-17T17:21:39.013Z,-2.68
2022-12-17T17:26:44.559Z,-2.84
2022-12-17T17:37:13.856Z,-2.78
2022-12-17T17:42:18.457Z,-2.76
2022-12-17T17:47:27.652Z,-2.74
2022-12-17T17:52:31.526Z,-2.67
2022-12-17T17:57:49.517Z,-2.76
2022-12-17T18:02:53.746Z,-2.79
2022-12-17T18:07:59.272Z,-2.80
2022-12-17T18:13:22.334Z,-2.71
2022-12-17T18:18:25.687Z,-2.73
2022-12-17T18:23:29.018Z,-2.82
2022-12-17T18:28:33.398Z,-2.69
2022-12-17T18:33:41.566Z,-2.90
2022-12-17T18:38:45.479Z,-2.91
2022-12-17T18:43:49.486Z,-2.90
2022-12-17T18:48:54.135Z,-2.81
2022-12-17T18:54:05.535Z,-2.84
2022-12-17T18:59:20.510Z,-2.80
2022-12-17T19:04:27.304Z,-2.76
2022-12-17T19:09:35.916Z,-2.81
2022-12-17T19:14:39.542Z,-2.89
2022-12-17T19:19:42.896Z,-2.80
2022-12-17T19:24:47.828Z,-2.88
2022-12-17T19:29:51.214Z,-2.94
2022-12-17T19:35:10.302Z,-3.01
2022-12-17T19:40:24.093Z,-2.87
2022-12-17T19:45:47.976Z,-2.91
2022-12-17T19:51:11.586Z,-2.81
2022-12-17T19:56:46.951Z,-2.85
2022-12-17T20:02:07.261Z,-2.84
2022-12-17T20:07:11.552Z,-2.77
2022-12-17T20:12:19.112Z,-2.84
2022-12-17T20:17:26.998Z,-2.83
2022-12-17T20:22:31.218Z,-2.86
2022-12-17T20:27:34.875Z,-3.04
2022-12-17T20:32:44.392Z,-2.87
2022-12-17T20:37:50.744Z,-2.74
2022-12-17T20:43:00.533Z,-2.65
2022-12-17T20:48:06.676Z,-2.71
2022-12-17T20:53:12.294Z,-2.59
2022-12-17T20:58:26.423Z,-2.68
2022-12-17T21:03:37.125Z,-2.67
2022-12-17T21:08:51.225Z,-2.82
2022-12-17T21:14:21.231Z,-2.96
2022-12-17T21:19:46.805Z,-3.09
2022-12-17T21:25:12.375Z,-3.14
2022-12-17T21:30:48.869Z,-3.19
2022-12-17T21:36:46.264Z,-3.04
2022-12-17T21:42:24.740Z,-2.92
2022-12-17T21:48:00.125Z,-2.98
2022-12-17T21:54:02.807Z,-3.00
2022-12-17T22:05:39.304Z,-2.92
2022-12-17T22:11:30.976Z,-3.05
2022-12-17T22:17:09.696Z,-3.22
2022-12-17T22:22:22.291Z,-3.24
2022-12-17T22:27:37.355Z,-3.04
2022-12-17T22:33:14.783Z,-3.00
2022-12-17T22:42:30.507Z,-3.35
2022-12-17T22:44:41.944Z,-3.48
2022-12-17T22:49:27.684Z,-3.57
2022-12-17T22:54:37.904Z,-3.52
2022-12-17T23:00:01.901Z,-3.57
2022-12-17T23:05:11.544Z,-3.60
2022-12-17T23:10:15.148Z,-3.53
2022-12-17T23:15:22.014Z,-3.36
2022-12-17T23:20:27.252Z,-3.32
2022-12-17T23:25:32.275Z,-3.09
2022-12-17T23:30:39.826Z,-2.96
2022-12-17T23:35:46.356Z,-3.13
2022-12-17T23:41:18.934Z,-3.45
2022-12-17T23:46:34.661Z,-3.67
2022-12-17T23:51:46.205Z,-3.91
2022-12-17T23:57:03.358Z,-3.97
